sensor_id;sensor_type;location;lat;lon;timestamp;pressure;altitude;pressure_sealevel;temperature;humidity
70909;BME280;58554;52.006;5.926;2023-07-13T00:01:58;100545.81;;;20.01;52.35
70909;BME280;58554;52.006;5.926;2023-07-13T00:04:27;100554.88;;;20.00;52.36
70909;BME280;58554;52.006;5.926;2023-07-13T00:06:54;100550.13;;;19.94;52.30
70909;BME280;58554;52.006;5.926;2023-07-13T00:09:21;100549.44;;;19.92;52.45
70909;BME280;58554;52.006;5.926;2023-07-13T00:11:51;100545.38;;;19.88;52.61
70909;BME280;58554;52.006;5.926;2023-07-13T00:14:20;100554.53;;;19.85;52.47
70909;BME280;58554;52.006;5.926;2023-07-13T00:16:48;100551.34;;;19.81;52.43
70909;BME280;58554;52.006;5.926;2023-07-13T00:19:15;100554.19;;;19.80;52.35
70909;BME280;58554;52.006;5.926;2023-07-13T00:21:46;100550.66;;;19.79;52.66
70909;BME280;58554;52.006;5.926;2023-07-13T00:24:15;100556.16;;;19.78;52.67
70909;BME280;58554;52.006;5.926;2023-07-13T00:26:44;100554.47;;;19.77;52.43
70909;BME280;58554;52.006;5.926;2023-07-13T00:29:10;100561.81;;;19.75;52.43
70909;BME280;58554;52.006;5.926;2023-07-13T00:31:37;100562.69;;;19.75;52.47
70909;BME280;58554;52.006;5.926;2023-07-13T00:34:04;100560.00;;;19.75;52.62
70909;BME280;58554;52.006;5.926;2023-07-13T00:36:32;100554.94;;;19.72;52.54
70909;BME280;58554;52.006;5.926;2023-07-13T00:39:02;100557.63;;;19.72;52.68
70909;BME280;58554;52.006;5.926;2023-07-13T00:41:30;100556.91;;;19.70;52.62
70909;BME280;58554;52.006;5.926;2023-07-13T00:43:57;100557.06;;;19.69;52.57
70909;BME280;58554;52.006;5.926;2023-07-13T00:46:26;100565.28;;;19.67;52.52
70909;BME280;58554;52.006;5.926;2023-07-13T00:49:00;100569.13;;;19.65;52.83
70909;BME280;58554;52.006;5.926;2023-07-13T00:51:33;100564.88;;;19.62;52.91
70909;BME280;58554;52.006;5.926;2023-07-13T00:54:09;100556.69;;;19.64;52.92
70909;BME280;58554;52.006;5.926;2023-07-13T00:56:40;100556.84;;;19.62;52.85
70909;BME280;58554;52.006;5.926;2023-07-13T00:59:11;100562.53;;;19.59;52.77
70909;BME280;58554;52.006;5.926;2023-07-13T01:01:39;100563.78;;;19.55;52.87
70909;BME280;58554;52.006;5.926;2023-07-13T01:04:06;100555.88;;;19.53;52.90
70909;BME280;58554;52.006;5.926;2023-07-13T01:06:34;100556.19;;;19.50;52.78
70909;BME280;58554;52.006;5.926;2023-07-13T01:09:02;100562.69;;;19.48;53.12
70909;BME280;58554;52.006;5.926;2023-07-13T01:11:32;100565.53;;;19.46;53.17
70909;BME280;58554;52.006;5.926;2023-07-13T01:13:59;100569.34;;;19.43;53.10
70909;BME280;58554;52.006;5.926;2023-07-13T01:16:29;100568.97;;;19.38;52.97
70909;BME280;58554;52.006;5.926;2023-07-13T01:18:58;100569.25;;;19.35;53.39
70909;BME280;58554;52.006;5.926;2023-07-13T01:21:29;100562.22;;;19.34;53.40
70909;BME280;58554;52.006;5.926;2023-07-13T01:23:58;100556.47;;;19.29;53.24
70909;BME280;58554;52.006;5.926;2023-07-13T01:26:25;100557.59;;;19.27;53.22
70909;BME280;58554;52.006;5.926;2023-07-13T01:28:52;100568.50;;;19.25;53.34
70909;BME280;58554;52.006;5.926;2023-07-13T01:31:21;100567.25;;;19.19;53.46
70909;BME280;58554;52.006;5.926;2023-07-13T01:33:48;100563.03;;;19.17;53.47
70909;BME280;58554;52.006;5.926;2023-07-13T01:36:16;100566.69;;;19.16;53.46
70909;BME280;58554;52.006;5.926;2023-07-13T01:38:46;100567.97;;;19.12;53.75
70909;BME280;58554;52.006;5.926;2023-07-13T01:41:12;100576.00;;;19.12;53.53
70909;BME280;58554;52.006;5.926;2023-07-13T01:43:39;100568.13;;;19.10;53.46
70909;BME280;58554;52.006;5.926;2023-07-13T01:46:06;100559.53;;;19.07;53.67
70909;BME280;58554;52.006;5.926;2023-07-13T01:48:32;100568.56;;;19.06;53.63
70909;BME280;58554;52.006;5.926;2023-07-13T01:50:59;100564.34;;;19.03;53.77
70909;BME280;58554;52.006;5.926;2023-07-13T01:53:26;100561.66;;;19.03;53.97
70909;BME280;58554;52.006;5.926;2023-07-13T01:55:57;100556.16;;;19.05;53.89
70909;BME280;58554;52.006;5.926;2023-07-13T01:58:24;100550.63;;;19.06;53.79
70909;BME280;58554;52.006;5.926;2023-07-13T02:00:51;100550.13;;;19.02;53.72
70909;BME280;58554;52.006;5.926;2023-07-13T02:03:18;100553.94;;;19.00;53.89
70909;BME280;58554;52.006;5.926;2023-07-13T02:05:45;100548.31;;;18.93;54.01
70909;BME280;58554;52.006;5.926;2023-07-13T02:08:12;100547.22;;;18.86;53.89
70909;BME280;58554;52.006;5.926;2023-07-13T02:10:39;100568.22;;;18.81;54.20
70909;BME280;58554;52.006;5.926;2023-07-13T02:13:08;100567.53;;;18.79;54.26
70909;BME280;58554;52.006;5.926;2023-07-13T02:15:38;100572.91;;;18.79;54.30
70909;BME280;58554;52.006;5.926;2023-07-13T02:18:08;100569.38;;;18.78;54.18
70909;BME280;58554;52.006;5.926;2023-07-13T02:20:35;100569.38;;;18.78;54.24
70909;BME280;58554;52.006;5.926;2023-07-13T02:23:02;100567.72;;;18.77;54.27
70909;BME280;58554;52.006;5.926;2023-07-13T02:25:28;100562.63;;;18.74;54.62
70909;BME280;58554;52.006;5.926;2023-07-13T02:27:55;100566.31;;;18.73;54.55
70909;BME280;58554;52.006;5.926;2023-07-13T02:30:25;100572.78;;;18.71;54.41
70909;BME280;58554;52.006;5.926;2023-07-13T02:32:51;100565.84;;;18.68;54.78
70909;BME280;58554;52.006;5.926;2023-07-13T02:35:19;100571.38;;;18.67;54.75
70909;BME280;58554;52.006;5.926;2023-07-13T02:37:46;100570.94;;;18.61;54.83
70909;BME280;58554;52.006;5.926;2023-07-13T02:40:13;100582.09;;;18.57;54.82
70909;BME280;58554;52.006;5.926;2023-07-13T02:42:41;100581.41;;;18.55;54.93
70909;BME280;58554;52.006;5.926;2023-07-13T02:45:08;100576.31;;;18.52;55.01
70909;BME280;58554;52.006;5.926;2023-07-13T02:47:39;100579.00;;;18.52;55.11
70909;BME280;58554;52.006;5.926;2023-07-13T02:50:07;100573.09;;;18.48;55.10
70909;BME280;58554;52.006;5.926;2023-07-13T02:52:35;100570.69;;;18.45;55.13
70909;BME280;58554;52.006;5.926;2023-07-13T02:55:02;100573.94;;;18.39;55.47
70909;BME280;58554;52.006;5.926;2023-07-13T02:57:29;100574.38;;;18.34;55.46
70909;BME280;58554;52.006;5.926;2023-07-13T02:59:56;100575.53;;;18.32;55.53
70909;BME280;58554;52.006;5.926;2023-07-13T03:02:23;100573.81;;;18.31;55.57
70909;BME280;58554;52.006;5.926;2023-07-13T03:04:52;100585.53;;;18.30;55.86
70909;BME280;58554;52.006;5.926;2023-07-13T03:07:19;100589.34;;;18.27;55.82
70909;BME280;58554;52.006;5.926;2023-07-13T03:09:46;100594.97;;;18.24;55.93
70909;BME280;58554;52.006;5.926;2023-07-13T03:12:12;100583.44;;;18.24;56.07
70909;BME280;58554;52.006;5.926;2023-07-13T03:14:39;100589.63;;;18.24;56.22
70909;BME280;58554;52.006;5.926;2023-07-13T03:17:06;100596.09;;;18.21;56.02
70909;BME280;58554;52.006;5.926;2023-07-13T03:19:32;100589.03;;;18.20;56.16
70909;BME280;58554;52.006;5.926;2023-07-13T03:22:02;100591.72;;;18.20;56.42
70909;BME280;58554;52.006;5.926;2023-07-13T03:24:29;100592.72;;;18.19;56.41
70909;BME280;58554;52.006;5.926;2023-07-13T03:26:56;100600.75;;;18.19;56.50
70909;BME280;58554;52.006;5.926;2023-07-13T03:29:23;100593.84;;;18.17;56.56
70909;BME280;58554;52.006;5.926;2023-07-13T03:31:49;100598.50;;;18.15;56.26
70909;BME280;58554;52.006;5.926;2023-07-13T03:34:16;100601.59;;;18.10;56.40
70909;BME280;58554;52.006;5.926;2023-07-13T03:36:43;100598.63;;;18.04;56.59
70909;BME280;58554;52.006;5.926;2023-07-13T03:39:12;100598.09;;;18.00;56.58
70909;BME280;58554;52.006;5.926;2023-07-13T03:41:39;100597.66;;;17.95;56.51
70909;BME280;58554;52.006;5.926;2023-07-13T03:44:06;100604.56;;;17.88;56.55
70909;BME280;58554;52.006;5.926;2023-07-13T03:46:33;100603.66;;;17.77;56.51
70909;BME280;58554;52.006;5.926;2023-07-13T03:49:00;100599.13;;;17.68;56.80
70909;BME280;58554;52.006;5.926;2023-07-13T03:51:28;100609.81;;;17.58;56.64
70909;BME280;58554;52.006;5.926;2023-07-13T03:53:54;100623.03;;;17.50;56.98
70909;BME280;58554;52.006;5.926;2023-07-13T03:56:24;100628.22;;;17.42;57.09
70909;BME280;58554;52.006;5.926;2023-07-13T03:58:51;100620.97;;;17.33;56.93
70909;BME280;58554;52.006;5.926;2023-07-13T04:01:19;100630.53;;;17.26;57.24
70909;BME280;58554;52.006;5.926;2023-07-13T04:03:47;100624.91;;;17.19;57.45
70909;BME280;58554;52.006;5.926;2023-07-13T04:06:17;100618.66;;;17.09;57.48
70909;BME280;58554;52.006;5.926;2023-07-13T04:08:46;100622.81;;;17.02;57.69
70909;BME280;58554;52.006;5.926;2023-07-13T04:11:14;100627.97;;;16.93;57.71
70909;BME280;58554;52.006;5.926;2023-07-13T04:13:43;100621.22;;;16.89;57.77
70909;BME280;58554;52.006;5.926;2023-07-13T04:16:10;100623.56;;;16.83;58.15
70909;BME280;58554;52.006;5.926;2023-07-13T04:18:37;100634.88;;;16.75;58.34
70909;BME280;58554;52.006;5.926;2023-07-13T04:21:04;100631.06;;;16.68;58.35
70909;BME280;58554;52.006;5.926;2023-07-13T04:23:31;100637.75;;;16.62;58.49
70909;BME280;58554;52.006;5.926;2023-07-13T04:25:57;100630.97;;;16.58;58.71
70909;BME280;58554;52.006;5.926;2023-07-13T04:28:25;100635.03;;;16.52;58.75
70909;BME280;58554;52.006;5.926;2023-07-13T04:30:55;100635.41;;;16.48;58.98
70909;BME280;58554;52.006;5.926;2023-07-13T04:33:22;100641.97;;;16.44;59.42
70909;BME280;58554;52.006;5.926;2023-07-13T04:35:49;100639.56;;;16.40;59.32
70909;BME280;58554;52.006;5.926;2023-07-13T04:38:16;100638.00;;;16.38;59.43
70909;BME280;58554;52.006;5.926;2023-07-13T04:40:45;100639.97;;;16.36;59.63
70909;BME280;58554;52.006;5.926;2023-07-13T04:43:12;100648.81;;;16.36;59.70
70909;BME280;58554;52.006;5.926;2023-07-13T04:45:39;100644.31;;;16.37;60.20
70909;BME280;58554;52.006;5.926;2023-07-13T04:48:08;100648.53;;;16.39;60.14
70909;BME280;58554;52.006;5.926;2023-07-13T04:50:36;100642.38;;;16.39;60.06
70909;BME280;58554;52.006;5.926;2023-07-13T04:53:04;100641.41;;;16.40;60.44
70909;BME280;58554;52.006;5.926;2023-07-13T04:55:31;100645.63;;;16.43;60.50
70909;BME280;58554;52.006;5.926;2023-07-13T04:57:58;100649.13;;;16.43;60.40
70909;BME280;58554;52.006;5.926;2023-07-13T05:00:25;100646.06;;;16.48;60.79
70909;BME280;58554;52.006;5.926;2023-07-13T05:02:55;100643.25;;;16.60;60.99
70909;BME280;58554;52.006;5.926;2023-07-13T05:05:26;100657.09;;;16.75;60.75
70909;BME280;58554;52.006;5.926;2023-07-13T05:07:53;100659.59;;;16.88;60.61
70909;BME280;58554;52.006;5.926;2023-07-13T05:10:20;100661.47;;;16.97;60.51
70909;BME280;58554;52.006;5.926;2023-07-13T05:12:48;100655.47;;;17.05;60.35
70909;BME280;58554;52.006;5.926;2023-07-13T05:15:15;100655.91;;;17.10;60.41
70909;BME280;58554;52.006;5.926;2023-07-13T05:17:43;100668.91;;;17.15;60.42
70909;BME280;58554;52.006;5.926;2023-07-13T05:20:11;100666.41;;;17.23;60.25
70909;BME280;58554;52.006;5.926;2023-07-13T05:22:40;100666.00;;;17.28;60.46
70909;BME280;58554;52.006;5.926;2023-07-13T05:25:08;100671.63;;;17.34;60.27
70909;BME280;58554;52.006;5.926;2023-07-13T05:27:35;100678.41;;;17.38;60.44
70909;BME280;58554;52.006;5.926;2023-07-13T05:30:04;100682.91;;;17.38;60.38
70909;BME280;58554;52.006;5.926;2023-07-13T05:32:33;100682.22;;;17.36;60.44
70909;BME280;58554;52.006;5.926;2023-07-13T05:34:59;100695.97;;;17.31;60.25
70909;BME280;58554;52.006;5.926;2023-07-13T05:37:26;100678.63;;;17.26;60.67
70909;BME280;58554;52.006;5.926;2023-07-13T05:39:55;100678.75;;;17.24;60.76
70909;BME280;58554;52.006;5.926;2023-07-13T05:42:22;100684.13;;;17.24;61.01
70909;BME280;58554;52.006;5.926;2023-07-13T05:44:49;100685.09;;;17.23;60.99
70909;BME280;58554;52.006;5.926;2023-07-13T05:47:16;100695.50;;;17.26;61.20
70909;BME280;58554;52.006;5.926;2023-07-13T05:49:42;100696.34;;;17.27;61.28
70909;BME280;58554;52.006;5.926;2023-07-13T05:52:09;100694.28;;;17.30;61.24
70909;BME280;58554;52.006;5.926;2023-07-13T05:54:36;100698.38;;;17.34;61.29
70909;BME280;58554;52.006;5.926;2023-07-13T05:57:05;100700.63;;;17.39;61.27
70909;BME280;58554;52.006;5.926;2023-07-13T05:59:32;100696.00;;;17.41;61.60
70909;BME280;58554;52.006;5.926;2023-07-13T06:01:59;100703.50;;;17.47;61.29
70909;BME280;58554;52.006;5.926;2023-07-13T06:04:25;100708.41;;;17.52;61.62
70909;BME280;58554;52.006;5.926;2023-07-13T06:06:53;100714.09;;;17.58;61.54
70909;BME280;58554;52.006;5.926;2023-07-13T06:09:19;100713.69;;;17.63;61.31
70909;BME280;58554;52.006;5.926;2023-07-13T06:11:46;100714.81;;;17.70;61.53
70909;BME280;58554;52.006;5.926;2023-07-13T06:14:16;100725.97;;;17.75;61.58
70909;BME280;58554;52.006;5.926;2023-07-13T06:16:43;100721.94;;;17.81;61.70
70909;BME280;58554;52.006;5.926;2023-07-13T06:19:09;100723.94;;;17.89;61.73
70909;BME280;58554;52.006;5.926;2023-07-13T06:21:36;100724.94;;;17.97;61.58
70909;BME280;58554;52.006;5.926;2023-07-13T06:24:03;100719.75;;;18.06;61.64
70909;BME280;58554;52.006;5.926;2023-07-13T06:26:30;100723.28;;;18.16;61.48
70909;BME280;58554;52.006;5.926;2023-07-13T06:28:57;100729.78;;;18.23;61.52
70909;BME280;58554;52.006;5.926;2023-07-13T06:31:27;100726.56;;;18.29;61.20
70909;BME280;58554;52.006;5.926;2023-07-13T06:33:53;100740.22;;;18.36;61.42
70909;BME280;58554;52.006;5.926;2023-07-13T06:36:20;100737.25;;;18.39;61.38
70909;BME280;58554;52.006;5.926;2023-07-13T06:38:47;100736.13;;;18.41;61.60
70909;BME280;58554;52.006;5.926;2023-07-13T06:41:14;100743.75;;;18.46;61.54
70909;BME280;58554;52.006;5.926;2023-07-13T06:43:41;100744.59;;;18.47;61.45
70909;BME280;58554;52.006;5.926;2023-07-13T06:46:08;100742.63;;;18.49;61.65
70909;BME280;58554;52.006;5.926;2023-07-13T06:48:38;100743.34;;;18.51;61.64
70909;BME280;58554;52.006;5.926;2023-07-13T06:51:05;100748.28;;;18.55;61.91
70909;BME280;58554;52.006;5.926;2023-07-13T06:53:32;100746.88;;;18.61;61.63
70909;BME280;58554;52.006;5.926;2023-07-13T06:55:58;100748.16;;;18.67;61.54
70909;BME280;58554;52.006;5.926;2023-07-13T06:58:25;100756.63;;;18.72;61.56
70909;BME280;58554;52.006;5.926;2023-07-13T07:00:52;100755.63;;;18.73;61.51
70909;BME280;58554;52.006;5.926;2023-07-13T07:03:19;100751.41;;;18.80;61.76
70909;BME280;58554;52.006;5.926;2023-07-13T07:05:49;100750.72;;;18.88;61.65
70909;BME280;58554;52.006;5.926;2023-07-13T07:08:15;100761.41;;;18.97;61.21
70909;BME280;58554;52.006;5.926;2023-07-13T07:10:42;100758.16;;;19.04;61.38
70909;BME280;58554;52.006;5.926;2023-07-13T07:13:09;100761.66;;;19.04;61.42
70909;BME280;58554;52.006;5.926;2023-07-13T07:15:36;100758.00;;;19.05;61.60
70909;BME280;58554;52.006;5.926;2023-07-13T07:18:03;100755.91;;;19.09;61.43
70909;BME280;58554;52.006;5.926;2023-07-13T07:20:30;100764.34;;;19.14;61.63
70909;BME280;58554;52.006;5.926;2023-07-13T07:22:59;100761.22;;;19.18;61.38
70909;BME280;58554;52.006;5.926;2023-07-13T07:25:26;100763.75;;;19.20;61.20
70909;BME280;58554;52.006;5.926;2023-07-13T07:27:53;100769.00;;;19.21;61.32
70909;BME280;58554;52.006;5.926;2023-07-13T07:30:20;100768.84;;;19.23;61.32
70909;BME280;58554;52.006;5.926;2023-07-13T07:32:46;100759.81;;;19.24;61.20
70909;BME280;58554;52.006;5.926;2023-07-13T07:35:13;100761.50;;;19.25;61.36
70909;BME280;58554;52.006;5.926;2023-07-13T07:37:40;100767.97;;;19.32;61.06
70909;BME280;58554;52.006;5.926;2023-07-13T07:40:10;100769.50;;;19.35;61.34
70909;BME280;58554;52.006;5.926;2023-07-13T07:42:37;100770.78;;;19.40;61.02
70909;BME280;58554;52.006;5.926;2023-07-13T07:45:04;100771.03;;;19.47;61.27
70909;BME280;58554;52.006;5.926;2023-07-13T07:47:32;100768.31;;;19.57;61.07
70909;BME280;58554;52.006;5.926;2023-07-13T07:49:58;100774.69;;;19.66;61.12
70909;BME280;58554;52.006;5.926;2023-07-13T07:52:25;100772.94;;;19.74;60.98
70909;BME280;58554;52.006;5.926;2023-07-13T07:54:52;100772.06;;;19.84;60.76
70909;BME280;58554;52.006;5.926;2023-07-13T07:57:21;100775.13;;;19.89;60.86
70909;BME280;58554;52.006;5.926;2023-07-13T07:59:48;100759.28;;;19.95;60.65
70909;BME280;58554;52.006;5.926;2023-07-13T08:02:15;100756.84;;;20.02;60.55
70909;BME280;58554;52.006;5.926;2023-07-13T08:04:42;100754.72;;;20.06;60.20
70909;BME280;58554;52.006;5.926;2023-07-13T08:07:08;100757.63;;;20.12;60.41
70909;BME280;58554;52.006;5.926;2023-07-13T08:09:35;100765.94;;;20.19;60.39
70909;BME280;58554;52.006;5.926;2023-07-13T08:12:02;100756.84;;;20.30;60.49
70909;BME280;58554;52.006;5.926;2023-07-13T08:14:33;100761.72;;;20.44;60.17
70909;BME280;58554;52.006;5.926;2023-07-13T08:16:59;100749.81;;;20.47;59.91
70909;BME280;58554;52.006;5.926;2023-07-13T08:19:26;100753.34;;;20.47;59.48
70909;BME280;58554;52.006;5.926;2023-07-13T08:21:53;100758.56;;;20.49;59.83
70909;BME280;58554;52.006;5.926;2023-07-13T08:24:21;100762.16;;;20.57;59.94
70909;BME280;58554;52.006;5.926;2023-07-13T08:26:50;100756.19;;;20.63;59.44
70909;BME280;58554;52.006;5.926;2023-07-13T08:29:17;100760.09;;;20.69;59.70
70909;BME280;58554;52.006;5.926;2023-07-13T08:31:47;100751.66;;;20.82;59.66
70909;BME280;58554;52.006;5.926;2023-07-13T08:34:14;100751.09;;;20.96;59.63
70909;BME280;58554;52.006;5.926;2023-07-13T08:36:41;100753.22;;;21.11;59.18
70909;BME280;58554;52.006;5.926;2023-07-13T08:39:07;100746.72;;;21.21;59.00
70909;BME280;58554;52.006;5.926;2023-07-13T08:41:34;100758.94;;;21.34;58.69
70909;BME280;58554;52.006;5.926;2023-07-13T08:44:07;100757.97;;;21.43;58.38
70909;BME280;58554;52.006;5.926;2023-07-13T08:46:52;100755.72;;;21.56;57.84
70909;BME280;58554;52.006;5.926;2023-07-13T08:49:25;100746.00;;;21.63;57.62
70909;BME280;58554;52.006;5.926;2023-07-13T08:51:57;100736.75;;;21.66;57.25
70909;BME280;58554;52.006;5.926;2023-07-13T08:54:32;100754.56;;;21.59;56.87
70909;BME280;58554;52.006;5.926;2023-07-13T08:57:12;100757.50;;;21.48;56.73
70909;BME280;58554;52.006;5.926;2023-07-13T08:59:40;100751.66;;;21.26;56.83
70909;BME280;58554;52.006;5.926;2023-07-13T09:02:19;100752.53;;;21.09;57.20
70909;BME280;58554;52.006;5.926;2023-07-13T09:04:56;100750.41;;;20.94;57.29
70909;BME280;58554;52.006;5.926;2023-07-13T09:07:43;100740.28;;;20.88;57.62
70909;BME280;58554;52.006;5.926;2023-07-13T09:10:27;100749.03;;;20.90;57.31
70909;BME280;58554;52.006;5.926;2023-07-13T09:13:07;100747.03;;;20.92;57.67
70909;BME280;58554;52.006;5.926;2023-07-13T09:15:48;100742.22;;;21.04;57.51
70909;BME280;58554;52.006;5.926;2023-07-13T09:18:23;100744.19;;;21.20;57.00
70909;BME280;58554;52.006;5.926;2023-07-13T09:20:57;100753.72;;;21.32;56.71
70909;BME280;58554;52.006;5.926;2023-07-13T09:23:29;100750.94;;;21.42;56.18
70909;BME280;58554;52.006;5.926;2023-07-13T09:26:01;100754.34;;;21.52;55.75
70909;BME280;58554;52.006;5.926;2023-07-13T09:28:37;100752.69;;;21.59;55.26
70909;BME280;58554;52.006;5.926;2023-07-13T09:31:09;100752.00;;;21.57;55.28
70909;BME280;58554;52.006;5.926;2023-07-13T09:33:42;100757.25;;;21.59;55.08
70909;BME280;58554;52.006;5.926;2023-07-13T09:36:19;100769.38;;;21.63;54.89
70909;BME280;58554;52.006;5.926;2023-07-13T09:38:48;100768.53;;;21.62;54.97
70909;BME280;58554;52.006;5.926;2023-07-13T09:41:26;100773.69;;;21.56;55.12
70909;BME280;58554;52.006;5.926;2023-07-13T09:44:07;100776.13;;;21.41;56.15
70909;BME280;58554;52.006;5.926;2023-07-13T09:46:35;100778.00;;;21.22;56.31
70909;BME280;58554;52.006;5.926;2023-07-13T09:49:05;100778.25;;;21.11;56.80
70909;BME280;58554;52.006;5.926;2023-07-13T09:51:36;100785.78;;;21.08;57.12
70909;BME280;58554;52.006;5.926;2023-07-13T09:54:03;100787.09;;;21.03;57.42
70909;BME280;58554;52.006;5.926;2023-07-13T09:56:30;100784.41;;;21.03;57.39
70909;BME280;58554;52.006;5.926;2023-07-13T09:58:58;100775.03;;;21.08;57.51
70909;BME280;58554;52.006;5.926;2023-07-13T10:01:33;100778.56;;;21.08;57.66
70909;BME280;58554;52.006;5.926;2023-07-13T10:04:02;100786.81;;;21.07;57.53
70909;BME280;58554;52.006;5.926;2023-07-13T10:06:40;100785.41;;;21.02;57.46
70909;BME280;58554;52.006;5.926;2023-07-13T10:09:07;100788.03;;;20.94;57.51
70909;BME280;58554;52.006;5.926;2023-07-13T10:11:36;100792.03;;;20.90;57.53
70909;BME280;58554;52.006;5.926;2023-07-13T10:14:12;100777.75;;;20.90;58.46
70909;BME280;58554;52.006;5.926;2023-07-13T10:16:42;100783.81;;;20.92;58.30
70909;BME280;58554;52.006;5.926;2023-07-13T10:19:18;100777.97;;;20.96;58.59
70909;BME280;58554;52.006;5.926;2023-07-13T10:21:52;100793.50;;;21.02;58.62
70909;BME280;58554;52.006;5.926;2023-07-13T10:24:22;100789.84;;;21.12;58.66
70909;BME280;58554;52.006;5.926;2023-07-13T10:26:55;100794.44;;;21.19;58.51
70909;BME280;58554;52.006;5.926;2023-07-13T10:29:29;100787.16;;;21.30;58.50
70909;BME280;58554;52.006;5.926;2023-07-13T10:32:01;100792.41;;;21.39;58.37
70909;BME280;58554;52.006;5.926;2023-07-13T10:34:30;100785.78;;;21.52;57.70
70909;BME280;58554;52.006;5.926;2023-07-13T10:36:58;100796.44;;;21.61;57.37
70909;BME280;58554;52.006;5.926;2023-07-13T10:39:28;100788.91;;;21.65;56.64
70909;BME280;58554;52.006;5.926;2023-07-13T10:42:00;100797.81;;;21.66;56.47
70909;BME280;58554;52.006;5.926;2023-07-13T10:44:33;100794.78;;;21.69;56.64
70909;BME280;58554;52.006;5.926;2023-07-13T10:47:02;100801.38;;;21.74;56.56
70909;BME280;58554;52.006;5.926;2023-07-13T10:49:37;100812.03;;;21.84;56.24
70909;BME280;58554;52.006;5.926;2023-07-13T10:52:06;100826.19;;;21.86;55.73
70909;BME280;58554;52.006;5.926;2023-07-13T10:54:52;100829.72;;;21.87;55.71
70909;BME280;58554;52.006;5.926;2023-07-13T10:57:21;100825.34;;;21.86;55.54
70909;BME280;58554;52.006;5.926;2023-07-13T10:59:49;100829.19;;;21.83;55.66
70909;BME280;58554;52.006;5.926;2023-07-13T11:02:41;100820.28;;;21.82;56.41
70909;BME280;58554;52.006;5.926;2023-07-13T11:05:22;100815.31;;;21.96;56.34
70909;BME280;58554;52.006;5.926;2023-07-13T11:08:02;100809.31;;;22.10;56.34
70909;BME280;58554;52.006;5.926;2023-07-13T11:10:49;100811.56;;;22.31;55.83
70909;BME280;58554;52.006;5.926;2023-07-13T11:13:36;100816.53;;;22.44;55.49
70909;BME280;58554;52.006;5.926;2023-07-13T11:16:35;100815.50;;;22.53;54.94
70909;BME280;58554;52.006;5.926;2023-07-13T11:19:37;100814.34;;;22.64;55.13
70909;BME280;58554;52.006;5.926;2023-07-13T11:22:21;100812.84;;;22.70;54.72
70909;BME280;58554;52.006;5.926;2023-07-13T11:24:59;100817.59;;;22.76;54.29
70909;BME280;58554;52.006;5.926;2023-07-13T11:27:41;100824.31;;;22.72;53.74
70909;BME280;58554;52.006;5.926;2023-07-13T11:30:32;100836.09;;;22.62;54.65
70909;BME280;58554;52.006;5.926;2023-07-13T11:33:11;100836.91;;;22.47;55.03
70909;BME280;58554;52.006;5.926;2023-07-13T11:35:45;100836.34;;;22.35;55.82
70909;BME280;58554;52.006;5.926;2023-07-13T11:38:35;100832.28;;;22.31;57.13
70909;BME280;58554;52.006;5.926;2023-07-13T11:41:06;100841.56;;;22.36;57.04
70909;BME280;58554;52.006;5.926;2023-07-13T11:43:41;100838.53;;;22.39;57.03
70909;BME280;58554;52.006;5.926;2023-07-13T11:46:15;100832.31;;;22.39;57.05
70909;BME280;58554;52.006;5.926;2023-07-13T11:48:46;100830.31;;;22.41;56.83
70909;BME280;58554;52.006;5.926;2023-07-13T11:51:20;100832.00;;;22.42;56.62
70909;BME280;58554;52.006;5.926;2023-07-13T11:53:53;100829.63;;;22.39;56.42
70909;BME280;58554;52.006;5.926;2023-07-13T11:56:23;100825.25;;;22.38;55.91
70909;BME280;58554;52.006;5.926;2023-07-13T11:58:52;100820.69;;;22.38;55.54
70909;BME280;58554;52.006;5.926;2023-07-13T12:01:24;100824.38;;;22.37;55.64
70909;BME280;58554;52.006;5.926;2023-07-13T12:03:56;100820.69;;;22.38;55.51
70909;BME280;58554;52.006;5.926;2023-07-13T12:06:28;100811.44;;;22.41;55.16
70909;BME280;58554;52.006;5.926;2023-07-13T12:09:01;100812.47;;;22.40;54.65
70909;BME280;58554;52.006;5.926;2023-07-13T12:11:36;100821.69;;;22.37;54.20
70909;BME280;58554;52.006;5.926;2023-07-13T12:14:10;100824.19;;;22.31;54.65
70909;BME280;58554;52.006;5.926;2023-07-13T12:16:40;100820.81;;;22.29;54.32
70909;BME280;58554;52.006;5.926;2023-07-13T12:19:14;100822.16;;;22.24;54.76
70909;BME280;58554;52.006;5.926;2023-07-13T12:21:44;100818.13;;;22.29;54.84
70909;BME280;58554;52.006;5.926;2023-07-13T12:24:20;100816.81;;;22.41;55.05
70909;BME280;58554;52.006;5.926;2023-07-13T12:26:51;100815.69;;;22.60;54.90
70909;BME280;58554;52.006;5.926;2023-07-13T12:29:19;100816.13;;;22.81;54.64
70909;BME280;58554;52.006;5.926;2023-07-13T12:31:47;100816.97;;;22.98;54.20
70909;BME280;58554;52.006;5.926;2023-07-13T12:34:17;100820.66;;;23.14;53.72
70909;BME280;58554;52.006;5.926;2023-07-13T12:36:47;100825.38;;;23.20;53.44
70909;BME280;58554;52.006;5.926;2023-07-13T12:39:22;100825.53;;;23.18;52.84
70909;BME280;58554;52.006;5.926;2023-07-13T12:41:51;100828.59;;;23.15;52.76
70909;BME280;58554;52.006;5.926;2023-07-13T12:44:25;100851.53;;;23.11;52.26
70909;BME280;58554;52.006;5.926;2023-07-13T12:46:57;100846.28;;;23.01;52.11
70909;BME280;58554;52.006;5.926;2023-07-13T12:49:30;100849.31;;;22.90;52.46
70909;BME280;58554;52.006;5.926;2023-07-13T12:52:00;100833.91;;;22.74;52.78
70909;BME280;58554;52.006;5.926;2023-07-13T12:54:32;100835.91;;;22.64;52.78
70909;BME280;58554;52.006;5.926;2023-07-13T12:56:59;100839.78;;;22.53;52.70
70909;BME280;58554;52.006;5.926;2023-07-13T12:59:31;100843.78;;;22.41;52.50
70909;BME280;58554;52.006;5.926;2023-07-13T13:01:58;100841.53;;;22.28;52.51
70909;BME280;58554;52.006;5.926;2023-07-13T13:04:26;100844.06;;;22.21;52.54